Time;durP1;ratioP1;P1;durP2;ratioP2;P2;SDS_P1;SDS_P2;PMS_P1;PMS_P2;Temp;Humidity;BMP_temperature;BMP_pressure;BME280_temperature;BME280_humidity;BME280_pressure;Samples;Min_cycle;Max_cycle;Signal;HPM_P1;HPM_P2
2020/12/16 00:01:15;;;;;;;6.00;4.97;;;4.10;99.90;;;;;;4990464;28;20246;-78
2020/12/16 00:03:41;;;;;;;6.60;5.88;;;4.10;99.90;;;;;;4975514;28;20171;-78
2020/12/16 00:06:07;;;;;;;5.83;5.20;;;4.00;99.90;;;;;;4971901;28;20202;-78
2020/12/16 00:08:32;;;;;;;7.17;5.07;;;4.00;99.90;;;;;;4960402;28;20734;-78
2020/12/16 00:10:58;;;;;;;6.03;5.43;;;3.90;99.90;;;;;;4975331;28;20211;-78
2020/12/16 00:13:24;;;;;;;4.97;4.57;;;4.00;99.90;;;;;;4975376;28;20251;-77
2020/12/16 00:15:50;;;;;;;6.07;5.43;;;4.00;99.90;;;;;;4966001;28;20675;-78
2020/12/16 00:18:16;;;;;;;5.30;4.80;;;3.90;99.90;;;;;;4972489;28;20178;-78
2020/12/16 00:20:42;;;;;;;5.95;4.57;;;3.90;99.90;;;;;;4974668;28;20211;-78
2020/12/16 00:23:09;;;;;;;8.00;5.57;;;3.90;99.90;;;;;;4975438;28;20630;-79
2020/12/16 00:25:35;;;;;;;6.10;5.45;;;4.00;99.90;;;;;;4973765;28;20219;-79
2020/12/16 00:28:01;;;;;;;6.93;6.10;;;4.00;99.90;;;;;;4971856;28;20203;-79
2020/12/16 00:30:26;;;;;;;6.40;5.43;;;4.10;99.90;;;;;;4974297;28;20323;-78
2020/12/16 00:32:52;;;;;;;7.30;6.07;;;4.10;99.90;;;;;;4975316;28;20548;-78
2020/12/16 00:35:18;;;;;;;6.87;5.50;;;4.20;99.90;;;;;;4964046;28;20227;-79
2020/12/16 00:37:44;;;;;;;6.03;5.20;;;4.20;99.90;;;;;;4956092;28;20180;-79
2020/12/16 00:40:11;;;;;;;7.10;5.70;;;4.30;99.90;;;;;;4970677;28;20482;-79
2020/12/16 00:42:37;;;;;;;8.32;6.15;;;4.30;99.90;;;;;;4974950;28;20187;-79
2020/12/16 00:45:05;;;;;;;9.85;6.88;;;4.30;99.90;;;;;;4960793;28;20556;-79
2020/12/16 00:47:35;;;;;;;9.60;6.40;;;4.30;99.90;;;;;;4956209;28;20176;-78
2020/12/16 00:50:06;;;;;;;7.30;6.60;;;4.40;99.90;;;;;;4974243;28;20231;-78
2020/12/16 00:52:31;;;;;;;6.88;5.82;;;4.40;99.90;;;;;;4974652;28;20191;-78
2020/12/16 00:54:57;;;;;;;6.23;5.63;;;4.50;99.90;;;;;;4967415;28;20210;-79
2020/12/16 00:57:23;;;;;;;7.10;6.40;;;4.60;99.90;;;;;;4965678;28;20705;-79
2020/12/16 00:59:49;;;;;;;7.17;6.50;;;4.50;99.90;;;;;;4974518;28;20613;-77
2020/12/16 01:02:15;;;;;;;6.50;5.90;;;4.60;99.90;;;;;;4974964;28;20446;-77
2020/12/16 01:04:40;;;;;;;7.43;6.73;;;4.60;99.90;;;;;;4967086;28;20212;-78
2020/12/16 01:07:06;;;;;;;6.63;5.83;;;4.60;99.90;;;;;;4962179;28;20822;-78
2020/12/16 01:09:32;;;;;;;8.63;7.73;;;4.60;99.90;;;;;;4974250;28;20222;-78
2020/12/16 01:11:58;;;;;;;7.13;6.40;;;4.70;99.90;;;;;;4974498;28;20442;-78
2020/12/16 01:14:24;;;;;;;8.23;6.53;;;4.70;99.90;;;;;;4974174;28;20282;-78
2020/12/16 01:16:50;;;;;;;7.60;6.65;;;4.80;99.90;;;;;;4963142;28;20184;-78
2020/12/16 01:19:16;;;;;;;8.40;7.50;;;4.90;99.90;;;;;;4987844;28;20213;-77
2020/12/16 01:21:42;;;;;;;8.82;6.90;;;5.00;99.90;;;;;;4984040;28;20281;-78
2020/12/16 01:24:07;;;;;;;8.10;7.30;;;5.10;99.90;;;;;;4973834;28;20319;-78
2020/12/16 01:26:40;;;;;;;10.30;8.47;;;5.20;99.90;;;;;;4963012;28;20686;-77
2020/12/16 01:29:07;;;;;;;9.95;8.95;;;5.30;99.90;;;;;;4956257;28;20208;-78
2020/12/16 01:31:47;;;;;;;8.95;8.05;;;5.50;99.90;;;;;;4974438;28;20543;-78
2020/12/16 01:34:13;;;;;;;12.00;8.20;;;5.50;99.90;;;;;;4971944;28;20298;-78
2020/12/16 01:36:42;;;;;;;10.27;7.90;;;5.60;99.90;;;;;;4954945;28;20255;-78
2020/12/16 01:39:10;;;;;;;7.82;7.10;;;5.60;99.90;;;;;;4954648;28;20238;-78
2020/12/16 01:41:48;;;;;;;8.23;7.47;;;5.70;99.90;;;;;;4954810;28;20188;-79
2020/12/16 01:44:16;;;;;;;8.18;7.00;;;5.70;99.90;;;;;;4962008;28;20293;-78
2020/12/16 01:46:51;;;;;;;7.10;6.43;;;5.70;99.90;;;;;;4970167;28;20203;-78
2020/12/16 01:49:17;;;;;;;9.30;6.40;;;5.70;99.90;;;;;;4973313;28;20223;-78
2020/12/16 01:51:44;;;;;;;9.20;7.65;;;5.70;99.90;;;;;;4973795;28;20230;-77
2020/12/16 01:54:11;;;;;;;7.50;6.68;;;5.70;99.90;;;;;;4973472;28;20203;-77
2020/12/16 01:56:41;;;;;;;8.35;7.03;;;5.70;99.90;;;;;;4961555;28;20622;-77
2020/12/16 01:59:09;;;;;;;8.25;7.18;;;5.80;99.90;;;;;;4973214;28;20211;-78
2020/12/16 02:01:36;;;;;;;7.93;6.72;;;5.80;99.90;;;;;;4973001;28;20258;-78
2020/12/16 02:04:03;;;;;;;8.75;6.57;;;5.80;99.90;;;;;;4975047;28;20281;-77
2020/12/16 02:06:32;;;;;;;7.05;6.00;;;5.80;99.90;;;;;;4968805;28;20682;-77
2020/12/16 02:09:05;;;;;;;7.20;5.45;;;5.70;99.90;;;;;;4973179;28;20570;-77
2020/12/16 02:11:32;;;;;;;7.28;6.50;;;5.80;99.90;;;;;;4973006;28;20180;-79
2020/12/16 02:13:59;;;;;;;8.05;6.63;;;5.90;99.90;;;;;;4972162;28;20223;-78
2020/12/16 02:16:25;;;;;;;7.53;6.00;;;5.90;99.90;;;;;;4954040;28;20702;-78
2020/12/16 02:18:52;;;;;;;7.90;6.77;;;5.90;99.90;;;;;;4972418;28;20276;-79
2020/12/16 02:21:18;;;;;;;9.02;6.70;;;6.00;99.90;;;;;;4973444;28;20179;-79
2020/12/16 02:23:47;;;;;;;8.15;6.63;;;5.90;99.90;;;;;;4971420;28;20175;-78
2020/12/16 02:26:14;;;;;;;7.88;6.70;;;5.90;99.90;;;;;;4958569;28;20192;-78
2020/12/16 02:28:41;;;;;;;7.80;6.72;;;5.90;99.90;;;;;;4953567;28;20164;-78
2020/12/16 02:31:07;;;;;;;7.20;6.13;;;5.90;99.90;;;;;;4956760;28;20666;-77
2020/12/16 02:33:32;;;;;;;7.88;5.18;;;5.80;99.90;;;;;;4973410;28;20254;-78
2020/12/16 02:35:58;;;;;;;8.13;6.60;;;5.70;99.90;;;;;;4963730;28;20631;-78
2020/12/16 02:38:24;;;;;;;6.50;4.53;;;5.50;99.90;;;;;;4954136;28;20658;-77
2020/12/16 02:40:50;;;;;;;11.97;6.60;;;5.50;99.90;;;;;;4960365;28;20690;-78
2020/12/16 02:43:15;;;;;;;6.77;6.07;;;5.40;99.90;;;;;;4973294;28;20167;-78
2020/12/16 02:45:41;;;;;;;6.57;5.97;;;5.30;99.90;;;;;;4971870;28;20215;-77
2020/12/16 02:48:07;;;;;;;7.40;5.13;;;5.20;99.90;;;;;;4953733;28;20184;-77
2020/12/16 02:50:32;;;;;;;6.37;5.63;;;5.20;99.90;;;;;;4957232;28;20215;-78
2020/12/16 02:52:58;;;;;;;5.87;5.23;;;5.10;99.90;;;;;;4972957;28;20198;-78
2020/12/16 02:55:24;;;;;;;7.80;5.43;;;5.10;99.90;;;;;;4966007;28;20241;-78
2020/12/16 02:57:49;;;;;;;7.53;5.27;;;5.00;99.90;;;;;;4955759;28;20183;-78
2020/12/16 03:00:15;;;;;;;8.03;4.50;;;5.00;99.90;;;;;;4960530;28;20261;-78
2020/12/16 03:02:40;;;;;;;7.80;5.43;;;4.90;99.90;;;;;;4970761;28;20199;-78
2020/12/16 03:05:06;;;;;;;6.13;5.23;;;4.80;99.90;;;;;;4971785;28;20207;-78
2020/12/16 03:07:34;;;;;;;6.07;4.90;;;4.70;99.90;;;;;;4958383;28;20180;-78
2020/12/16 03:10:00;;;;;;;5.57;4.90;;;4.70;99.90;;;;;;4964047;28;20262;-78
2020/12/16 03:12:27;;;;;;;5.27;4.77;;;4.70;99.90;;;;;;4973076;28;20649;-78
2020/12/16 03:14:53;;;;;;;4.40;4.00;;;4.70;99.90;;;;;;4973703;28;20452;-78
2020/12/16 03:17:19;;;;;;;5.77;3.67;;;4.70;99.90;;;;;;4957095;28;20530;-78
2020/12/16 03:19:44;;;;;;;5.10;4.20;;;4.60;99.90;;;;;;4971994;28;20318;-77
2020/12/16 03:22:10;;;;;;;21.23;6.90;;;4.60;99.90;;;;;;4976428;28;20553;-77
2020/12/16 03:24:36;;;;;;;4.20;3.80;;;4.60;99.90;;;;;;4974507;28;20306;-78
2020/12/16 03:27:01;;;;;;;5.70;4.30;;;4.60;99.90;;;;;;4961374;28;20208;-78
2020/12/16 03:29:27;;;;;;;5.60;4.53;;;4.50;99.90;;;;;;4968446;28;20250;-78
2020/12/16 03:31:53;;;;;;;8.80;5.50;;;4.50;99.90;;;;;;4976227;28;20419;-78
2020/12/16 03:34:18;;;;;;;7.43;5.90;;;4.50;99.90;;;;;;4974852;28;20293;-78
2020/12/16 03:36:44;;;;;;;10.20;6.20;;;4.40;99.90;;;;;;4956680;28;20179;-78
2020/12/16 03:39:10;;;;;;;6.90;5.40;;;4.40;99.90;;;;;;4970829;28;20870;-78
2020/12/16 03:41:36;;;;;;;7.57;6.77;;;4.40;99.90;;;;;;4976346;28;20203;-79
2020/12/16 03:44:02;;;;;;;11.63;5.57;;;4.40;99.90;;;;;;4975687;28;20442;-79
2020/12/16 03:46:28;;;;;;;6.80;5.47;;;4.50;99.90;;;;;;4964388;28;20294;-79
2020/12/16 03:48:53;;;;;;;10.23;6.70;;;4.50;99.90;;;;;;4975630;28;20603;-79
2020/12/16 03:51:23;;;;;;;7.30;6.23;;;4.60;99.90;;;;;;4975609;28;20778;-79
2020/12/16 03:53:48;;;;;;;7.47;5.88;;;4.60;99.90;;;;;;4975210;28;20407;-79
2020/12/16 03:56:15;;;;;;;7.93;5.70;;;4.50;99.90;;;;;;4974798;28;20186;-79
2020/12/16 03:58:42;;;;;;;7.35;6.15;;;4.50;99.90;;;;;;4975868;28;20164;-78
2020/12/16 04:01:09;;;;;;;10.25;5.65;;;4.50;99.90;;;;;;4974366;28;20188;-78
2020/12/16 04:03:35;;;;;;;6.00;5.35;;;4.50;99.90;;;;;;4975726;28;20183;-78
2020/12/16 04:06:01;;;;;;;4.80;4.30;;;4.50;99.90;;;;;;4968986;28;20355;-77
2020/12/16 04:08:27;;;;;;;4.15;3.60;;;4.50;99.90;;;;;;4956356;28;20203;-78
2020/12/16 04:10:53;;;;;;;4.87;4.47;;;4.50;99.90;;;;;;4960479;28;20245;-78
2020/12/16 04:13:18;;;;;;;4.10;3.50;;;4.40;99.90;;;;;;4975468;28;20176;-78
2020/12/16 04:15:45;;;;;;;7.87;6.63;;;4.30;99.90;;;;;;4964064;28;20583;-77
2020/12/16 04:18:11;;;;;;;9.63;7.40;;;4.30;99.90;;;;;;4974613;28;20670;-78
2020/12/16 04:20:37;;;;;;;8.53;6.83;;;4.30;99.90;;;;;;4973618;28;20228;-78
2020/12/16 04:23:04;;;;;;;9.27;6.70;;;4.30;99.90;;;;;;4975155;28;20191;-79
2020/12/16 04:25:30;;;;;;;7.55;5.45;;;4.30;99.90;;;;;;4974311;28;20309;-79
2020/12/16 04:27:56;;;;;;;6.68;4.38;;;4.30;99.90;;;;;;4966959;28;20198;-79
2020/12/16 04:30:22;;;;;;;6.30;5.40;;;4.20;99.90;;;;;;4973411;28;20674;-79
2020/12/16 04:32:56;;;;;;;9.03;5.17;;;4.20;99.90;;;;;;4975082;28;20550;-79
2020/12/16 04:35:23;;;;;;;6.88;5.10;;;4.20;99.90;;;;;;4958505;28;20816;-79
2020/12/16 04:37:48;;;;;;;5.32;4.80;;;4.20;99.90;;;;;;4970174;28;20258;-79
2020/12/16 04:40:14;;;;;;;4.73;4.00;;;4.20;99.90;;;;;;4975095;28;20234;-79
2020/12/16 04:42:41;;;;;;;6.40;4.60;;;4.20;99.90;;;;;;4974766;28;20298;-79
2020/12/16 04:45:08;;;;;;;6.32;4.93;;;4.20;99.90;;;;;;4969728;28;20466;-79
2020/12/16 04:47:34;;;;;;;5.60;4.40;;;4.10;99.90;;;;;;4959217;28;20187;-79
2020/12/16 04:50:00;;;;;;;6.13;4.53;;;4.10;99.90;;;;;;4954889;28;20556;-79
2020/12/16 04:52:29;;;;;;;4.40;3.83;;;4.10;99.90;;;;;;4971929;28;20195;-78
2020/12/16 04:54:55;;;;;;;14.63;4.60;;;4.10;99.90;;;;;;4962146;28;20450;-78
2020/12/16 04:57:22;;;;;;;8.23;5.33;;;4.00;99.90;;;;;;4955750;28;20179;-78
2020/12/16 04:59:53;;;;;;;3.95;3.55;;;4.00;99.90;;;;;;4965908;28;20454;-77
2020/12/16 05:02:18;;;;;;;6.40;4.43;;;3.90;99.90;;;;;;4970236;28;20728;-78
2020/12/16 05:04:44;;;;;;;7.30;4.10;;;4.00;99.90;;;;;;4971162;28;20218;-78
2020/12/16 05:07:29;;;;;;;7.60;5.57;;;3.90;99.90;;;;;;4963158;28;20584;-79
2020/12/16 05:09:55;;;;;;;6.32;4.95;;;4.00;99.90;;;;;;4964812;28;20265;-78
2020/12/16 05:12:21;;;;;;;5.30;4.80;;;3.90;99.90;;;;;;4974672;28;20639;-79
2020/12/16 05:14:47;;;;;;;5.80;4.20;;;3.90;99.90;;;;;;4974105;28;20443;-78
2020/12/16 05:17:13;;;;;;;6.80;4.38;;;3.90;99.90;;;;;;4958221;28;20180;-78
2020/12/16 05:19:44;;;;;;;10.23;5.10;;;3.80;99.90;;;;;;4957579;28;20219;-79
2020/12/16 05:22:20;;;;;;;6.72;4.70;;;3.80;99.90;;;;;;4974314;28;20270;-78
2020/12/16 05:24:57;;;;;;;6.88;5.05;;;3.90;99.90;;;;;;4971051;28;20238;-78
2020/12/16 05:27:26;;;;;;;5.03;4.00;;;3.80;99.90;;;;;;4966483;28;20293;-78
2020/12/16 05:29:56;;;;;;;5.25;4.20;;;3.80;99.90;;;;;;4973291;28;20603;-78
2020/12/16 05:32:34;;;;;;;5.03;4.20;;;3.70;99.90;;;;;;4973676;28;20195;-79
2020/12/16 05:35:01;;;;;;;5.30;3.97;;;3.70;99.90;;;;;;4973241;28;20633;-79
2020/12/16 05:37:29;;;;;;;5.43;3.88;;;3.70;99.90;;;;;;4965645;28;20250;-79
2020/12/16 05:39:57;;;;;;;4.97;4.13;;;3.60;99.90;;;;;;4965564;28;20656;-79
2020/12/16 05:42:25;;;;;;;5.28;3.95;;;3.50;99.90;;;;;;4972992;28;20241;-79
2020/12/16 05:44:55;;;;;;;5.03;4.03;;;3.50;99.90;;;;;;4972149;28;20210;-79
2020/12/16 05:47:21;;;;;;;3.88;3.40;;;3.50;99.90;;;;;;4970160;28;20234;-78
2020/12/16 05:49:47;;;;;;;6.88;4.20;;;3.40;99.90;;;;;;4972947;28;20689;-78
2020/12/16 05:52:13;;;;;;;4.07;3.67;;;3.40;99.90;;;;;;4973256;28;20253;-78
2020/12/16 05:54:39;;;;;;;4.53;3.40;;;3.40;99.90;;;;;;4969986;28;20455;-79
2020/12/16 05:57:19;;;;;;;3.92;3.53;;;3.30;99.90;;;;;;4969388;28;20643;-78
2020/12/16 06:00:00;;;;;;;4.88;3.83;;;3.30;99.90;;;;;;4972454;28;20770;-78
2020/12/16 06:02:34;;;;;;;5.10;3.85;;;3.30;99.90;;;;;;4973113;28;20566;-78
2020/12/16 06:05:00;;;;;;;4.07;3.30;;;3.30;99.90;;;;;;4973053;28;20265;-78
2020/12/16 06:07:28;;;;;;;5.03;3.93;;;3.20;99.90;;;;;;4958420;28;20667;-78
2020/12/16 06:09:56;;;;;;;4.00;3.60;;;3.20;99.90;;;;;;4967666;28;20213;-78
2020/12/16 06:12:26;;;;;;;5.40;3.70;;;3.30;99.90;;;;;;4972570;28;20192;-78
2020/12/16 06:15:03;;;;;;;3.17;2.80;;;3.20;99.90;;;;;;4970935;28;20269;-78
2020/12/16 06:17:35;;;;;;;6.32;4.30;;;3.30;99.90;;;;;;4972183;28;20209;-78
2020/12/16 06:20:01;;;;;;;5.47;3.92;;;3.20;99.90;;;;;;4971599;28;20466;-77
2020/12/16 06:22:33;;;;;;;6.28;4.32;;;3.20;99.90;;;;;;4973686;28;20339;-78
2020/12/16 06:25:02;;;;;;;5.65;4.63;;;3.20;99.90;;;;;;4971871;28;20214;-77
2020/12/16 06:27:36;;;;;;;6.68;4.25;;;3.20;99.90;;;;;;4971970;28;20223;-78
2020/12/16 06:30:06;;;;;;;9.15;6.38;;;3.20;99.90;;;;;;4972478;28;20210;-78
2020/12/16 06:32:43;;;;;;;8.45;4.40;;;3.20;99.90;;;;;;4972961;28;20203;-78
2020/12/16 06:35:16;;;;;;;6.15;4.00;;;3.30;99.90;;;;;;4972183;28;20210;-78
2020/12/16 06:37:42;;;;;;;6.05;4.05;;;3.20;99.90;;;;;;4968702;28;20191;-78
2020/12/16 06:40:07;;;;;;;7.07;4.77;;;3.20;99.90;;;;;;4972675;28;20259;-78
2020/12/16 06:42:33;;;;;;;5.80;4.13;;;3.30;99.90;;;;;;4973045;28;20194;-78
2020/12/16 06:45:15;;;;;;;4.50;3.38;;;3.40;99.90;;;;;;4966599;28;20683;-79
2020/12/16 06:47:42;;;;;;;7.07;4.32;;;3.50;99.90;;;;;;4954106;28;20266;-79
2020/12/16 06:50:18;;;;;;;4.60;4.20;;;3.60;99.90;;;;;;4981323;28;20259;-79
2020/12/16 06:52:44;;;;;;;4.28;3.42;;;3.80;99.90;;;;;;4972870;28;20253;-77
2020/12/16 06:55:09;;;;;;;4.97;4.43;;;3.70;99.90;;;;;;4958414;28;20497;-77
2020/12/16 06:57:49;;;;;;;5.20;4.70;;;3.80;99.90;;;;;;4967244;28;20622;-78
2020/12/16 07:00:18;;;;;;;8.88;5.63;;;3.90;99.90;;;;;;4972071;28;20222;-78
2020/12/16 07:02:44;;;;;;;6.85;5.13;;;4.10;99.90;;;;;;4972130;28;20291;-79
2020/12/16 07:05:41;;;;;;;9.13;5.90;;;4.40;99.90;;;;;;4971310;28;20305;-78
2020/12/16 07:08:07;;;;;;;6.53;5.68;;;4.70;99.90;;;;;;4955181;28;20180;-79
2020/12/16 07:10:37;;;;;;;8.07;6.37;;;5.00;99.90;;;;;;4971333;28;20274;-79
2020/12/16 07:13:17;;;;;;;9.85;6.72;;;5.10;99.90;;;;;;4971809;28;20471;-79
2020/12/16 07:15:55;;;;;;;9.02;5.80;;;5.20;99.90;;;;;;4969585;28;20214;-79
2020/12/16 07:18:22;;;;;;;7.13;5.18;;;5.30;99.90;;;;;;4972061;28;20178;-79
2020/12/16 07:20:49;;;;;;;8.38;5.30;;;5.30;99.90;;;;;;4971336;28;20207;-79
2020/12/16 07:23:14;;;;;;;7.13;5.45;;;5.10;99.90;;;;;;4971542;28;20179;-79
2020/12/16 07:25:45;;;;;;;8.87;5.77;;;5.10;99.90;;;;;;4966368;28;20227;-79
2020/12/16 07:28:12;;;;;;;5.32;4.70;;;5.00;99.90;;;;;;4962189;28;20175;-78
2020/12/16 07:31:05;;;;;;;8.95;7.25;;;5.00;99.90;;;;;;4970951;28;20207;-78
2020/12/16 07:33:32;;;;;;;7.90;6.85;;;4.90;99.90;;;;;;4950754;29;20655;-78
2020/12/16 07:36:00;;;;;;;14.57;8.73;;;5.00;99.90;;;;;;4957247;28;20210;-77
2020/12/16 07:38:26;;;;;;;14.55;8.02;;;4.90;99.90;;;;;;4970919;28;20179;-78
2020/12/16 07:40:53;;;;;;;9.65;7.22;;;5.00;99.90;;;;;;4973383;28;20219;-78
2020/12/16 07:43:20;;;;;;;13.48;8.40;;;5.00;99.90;;;;;;4984229;28;20171;-78
2020/12/16 07:45:59;;;;;;;12.40;8.15;;;4.90;99.90;;;;;;4960036;28;20219;-77
2020/12/16 07:48:25;;;;;;;13.35;9.27;;;4.90;99.90;;;;;;4963784;28;20168;-78
2020/12/16 07:50:58;;;;;;;13.90;8.40;;;4.90;99.90;;;;;;4952863;28;20234;-77
2020/12/16 07:53:24;;;;;;;12.05;9.05;;;5.00;99.90;;;;;;4971655;28;20642;-79
2020/12/16 07:55:57;;;;;;;12.60;8.53;;;5.00;99.90;;;;;;4962250;28;20242;-79
2020/12/16 07:58:23;;;;;;;12.57;8.50;;;4.90;99.90;;;;;;4951418;28;20180;-79
2020/12/16 08:00:49;;;;;;;15.00;9.10;;;4.90;99.90;;;;;;4965102;28;20297;-78
2020/12/16 08:03:18;;;;;;;12.20;9.30;;;4.80;99.90;;;;;;4974293;28;20415;-79
2020/12/16 08:05:54;;;;;;;10.75;8.45;;;4.90;99.90;;;;;;4966799;28;20219;-78
2020/12/16 08:08:22;;;;;;;16.33;9.00;;;4.80;99.90;;;;;;4958615;28;20179;-79
2020/12/16 08:10:47;;;;;;;14.10;9.65;;;4.80;99.90;;;;;;4974396;28;20207;-80
2020/12/16 08:13:20;;;;;;;12.87;9.43;;;4.80;99.90;;;;;;4975238;28;20175;-79
2020/12/16 08:15:46;;;;;;;13.95;9.38;;;4.70;99.90;;;;;;4972803;28;20649;-78
2020/12/16 08:18:15;;;;;;;14.83;9.97;;;4.70;99.90;;;;;;4955949;28;20319;-78
2020/12/16 08:20:42;;;;;;;14.13;10.13;;;4.60;99.90;;;;;;4973978;28;20225;-78
2020/12/16 08:23:11;;;;;;;15.00;10.30;;;4.60;99.90;;;;;;4974563;28;20167;-78
2020/12/16 08:25:37;;;;;;;17.98;10.52;;;4.60;99.90;;;;;;4970609;28;20219;-78
2020/12/16 08:28:06;;;;;;;13.63;9.83;;;4.70;99.90;;;;;;4970590;28;20171;-79
2020/12/16 08:30:32;;;;;;;14.35;10.05;;;4.80;99.90;;;;;;4973338;28;20211;-78
2020/12/16 08:33:12;;;;;;;11.95;9.38;;;4.80;99.90;;;;;;4974579;28;20195;-79
2020/12/16 08:36:09;;;;;;;17.60;11.70;;;4.90;99.90;;;;;;4963881;28;20324;-78
2020/12/16 08:38:39;;;;;;;15.82;10.80;;;4.90;99.90;;;;;;4975037;28;20183;-79
2020/12/16 08:41:07;;;;;;;16.80;9.32;;;5.00;99.90;;;;;;4973643;28;20214;-79
2020/12/16 08:43:38;;;;;;;13.70;9.27;;;5.00;99.90;;;;;;4973183;28;20287;-79
2020/12/16 08:46:07;;;;;;;19.23;12.95;;;5.00;99.90;;;;;;4970577;28;20298;-79
2020/12/16 08:48:40;;;;;;;13.90;9.32;;;5.10;99.90;;;;;;4973928;28;20176;-78
2020/12/16 08:51:08;;;;;;;10.75;9.18;;;5.20;99.90;;;;;;4973095;28;20585;-78
2020/12/16 08:53:57;;;;;;;16.30;11.43;;;5.20;99.90;;;;;;4976312;28;20204;-78
2020/12/16 08:56:28;;;;;;;20.52;13.13;;;5.10;99.90;;;;;;4967270;28;20208;-78
2020/12/16 08:59:17;;;;;;;17.25;12.60;;;5.20;99.90;;;;;;4959115;28;20176;-79
2020/12/16 09:01:48;;;;;;;16.80;11.25;;;5.40;99.90;;;;;;4974261;28;20195;-79
2020/12/16 09:04:38;;;;;;;13.73;10.88;;;5.50;99.90;;;;;;4972237;28;20297;-78
2020/12/16 09:07:09;;;;;;;15.77;12.23;;;5.60;99.90;;;;;;4957469;28;20216;-77
2020/12/16 09:09:37;;;;;;;22.40;13.00;;;5.70;99.90;;;;;;4970049;28;20211;-78
2020/12/16 09:12:09;;;;;;;16.13;12.65;;;5.80;99.90;;;;;;4974652;28;20191;-78
2020/12/16 09:14:35;;;;;;;14.55;10.77;;;5.80;99.90;;;;;;4973381;28;20214;-78
2020/12/16 09:17:08;;;;;;;16.73;10.57;;;5.90;99.90;;;;;;4995893;28;20539;-79
2020/12/16 09:19:35;;;;;;;17.30;12.13;;;6.00;99.90;;;;;;4972854;28;20598;-78
2020/12/16 09:22:02;;;;;;;15.52;10.70;;;6.10;99.90;;;;;;4974644;28;20187;-78
2020/12/16 09:24:28;;;;;;;18.52;10.98;;;6.20;99.90;;;;;;5004382;28;20221;-79
2020/12/16 09:26:55;;;;;;;16.55;11.15;;;6.30;99.90;;;;;;4959635;28;20199;-78
2020/12/16 09:29:27;;;;;;;13.40;10.85;;;6.30;99.90;;;;;;4967030;28;20211;-78
2020/12/16 09:32:06;;;;;;;16.58;11.32;;;6.40;99.90;;;;;;4973384;28;20562;-78
2020/12/16 09:34:45;;;;;;;15.45;11.88;;;6.50;99.90;;;;;;4971967;28;20210;-78
2020/12/16 09:37:15;;;;;;;19.80;11.90;;;6.50;99.90;;;;;;4956791;28;20183;-78
2020/12/16 09:39:42;;;;;;;14.50;10.05;;;6.60;99.90;;;;;;4962073;28;21058;-78
2020/12/16 09:42:10;;;;;;;16.92;11.75;;;6.70;99.90;;;;;;5010108;28;20252;-78
2020/12/16 09:44:36;;;;;;;13.15;9.70;;;6.80;99.90;;;;;;4969911;28;20215;-78
2020/12/16 09:47:22;;;;;;;12.37;9.67;;;7.00;99.90;;;;;;4963260;28;20199;-78
2020/12/16 09:50:00;;;;;;;16.60;9.95;;;7.20;99.90;;;;;;4972664;28;20449;-77
2020/12/16 09:52:27;;;;;;;12.07;9.18;;;7.30;99.90;;;;;;4972858;28;20250;-78
2020/12/16 09:54:53;;;;;;;12.38;10.23;;;7.40;99.90;;;;;;4973102;28;20258;-78
2020/12/16 09:57:28;;;;;;;13.45;10.48;;;7.30;99.90;;;;;;4966581;28;20266;-78
2020/12/16 09:59:53;;;;;;;12.38;8.63;;;7.50;99.90;;;;;;4972568;28;20300;-79
2020/12/16 10:02:19;;;;;;;13.67;10.40;;;7.50;99.90;;;;;;4972820;28;20250;-78
2020/12/16 10:04:45;;;;;;;12.23;10.53;;;7.70;99.90;;;;;;4966025;28;20679;-78
2020/12/16 10:07:11;;;;;;;13.32;10.45;;;7.90;99.90;;;;;;4963844;28;20209;-77
2020/12/16 10:09:39;;;;;;;14.63;9.13;;;8.10;99.90;;;;;;4971939;28;20302;-78
2020/12/16 10:12:05;;;;;;;13.43;10.50;;;8.20;99.90;;;;;;5001072;28;20195;-78
2020/12/16 10:14:31;;;;;;;12.17;9.60;;;8.30;99.90;;;;;;4972384;28;20213;-78
2020/12/16 10:16:57;;;;;;;14.63;11.32;;;8.50;99.90;;;;;;4960885;28;20459;-79
2020/12/16 10:19:23;;;;;;;14.27;11.70;;;8.50;99.90;;;;;;4972635;28;20220;-78
2020/12/16 10:21:49;;;;;;;13.90;11.23;;;8.50;99.90;;;;;;4972736;28;20195;-77
2020/12/16 10:24:16;;;;;;;16.60;11.63;;;8.50;99.90;;;;;;4970582;28;21315;-78
2020/12/16 10:26:49;;;;;;;12.27;9.45;;;8.50;99.90;;;;;;4962948;28;20204;-78
2020/12/16 10:29:16;;;;;;;14.73;9.70;;;8.60;99.90;;;;;;4961800;28;20207;-78
2020/12/16 10:31:47;;;;;;;12.85;9.70;;;8.70;99.90;;;;;;4972467;28;20535;-77
2020/12/16 10:34:13;;;;;;;13.70;9.65;;;8.70;99.90;;;;;;4972759;28;20610;-79
2020/12/16 10:36:38;;;;;;;12.43;9.20;;;8.70;99.90;;;;;;4967892;28;20196;-77
2020/12/16 10:39:04;;;;;;;16.67;11.17;;;8.80;99.90;;;;;;4971834;28;20203;-78
2020/12/16 10:41:30;;;;;;;11.07;9.97;;;8.90;99.90;;;;;;4972218;28;20192;-77
2020/12/16 10:43:55;;;;;;;14.33;11.40;;;8.80;99.90;;;;;;4972034;28;20179;-77
2020/12/16 10:46:21;;;;;;;17.07;12.10;;;8.90;99.90;;;;;;4970579;28;20195;-79
2020/12/16 10:48:47;;;;;;;18.20;12.63;;;9.00;99.90;;;;;;4972207;28;20177;-78
2020/12/16 10:51:12;;;;;;;13.00;11.47;;;9.00;99.90;;;;;;4972384;28;20207;-77
2020/12/16 10:53:38;;;;;;;12.70;10.27;;;9.10;99.90;;;;;;4971434;28;20591;-78
2020/12/16 10:56:04;;;;;;;11.70;8.67;;;9.20;99.90;;;;;;4962315;28;20191;-77
2020/12/16 10:58:29;;;;;;;14.33;8.43;;;9.20;99.90;;;;;;4964717;28;20188;-77
2020/12/16 11:00:55;;;;;;;12.30;10.07;;;9.20;99.90;;;;;;4971382;28;20293;-78
2020/12/16 11:03:21;;;;;;;9.90;8.60;;;9.20;99.90;;;;;;4972948;28;20463;-77
2020/12/16 11:05:47;;;;;;;12.23;8.30;;;9.10;99.90;;;;;;4969789;28;20287;-77
2020/12/16 11:08:12;;;;;;;9.40;8.13;;;9.10;99.90;;;;;;4970253;28;20263;-77
2020/12/16 11:10:38;;;;;;;9.93;8.47;;;9.20;99.90;;;;;;4971422;28;20214;-77
2020/12/16 11:13:04;;;;;;;10.93;7.20;;;9.20;99.90;;;;;;4971866;28;20202;-77
2020/12/16 11:15:31;;;;;;;9.07;7.70;;;9.10;99.90;;;;;;4971253;28;20743;-77
2020/12/16 11:17:57;;;;;;;11.33;8.10;;;9.00;99.90;;;;;;4952256;28;20841;-77
2020/12/16 11:20:23;;;;;;;10.10;8.20;;;9.10;99.90;;;;;;4970938;28;20464;-77
2020/12/16 11:22:48;;;;;;;10.37;7.97;;;9.00;99.90;;;;;;4971987;28;20272;-77
2020/12/16 11:25:14;;;;;;;10.53;9.47;;;9.00;99.90;;;;;;4970033;28;20214;-77
2020/12/16 11:27:40;;;;;;;13.40;10.50;;;9.00;99.90;;;;;;4970088;28;20553;-77
2020/12/16 11:30:05;;;;;;;13.20;9.73;;;8.90;99.90;;;;;;4970603;28;20208;-77
2020/12/16 11:32:31;;;;;;;17.17;11.93;;;8.90;99.90;;;;;;4971654;28;20245;-77
2020/12/16 11:34:57;;;;;;;16.37;11.87;;;8.90;99.90;;;;;;4972505;28;20251;-77
2020/12/16 11:37:23;;;;;;;13.80;9.87;;;9.10;99.90;;;;;;4973739;28;20222;-77
2020/12/16 11:39:48;;;;;;;9.93;8.93;;;9.10;99.90;;;;;;4973362;28;20462;-75
2020/12/16 11:42:14;;;;;;;11.70;9.20;;;9.20;99.90;;;;;;4976205;28;20359;-77
2020/12/16 11:44:40;;;;;;;12.90;10.10;;;9.20;99.90;;;;;;4972858;28;20217;-77
2020/12/16 11:47:06;;;;;;;13.50;9.03;;;9.20;99.90;;;;;;4955990;28;20592;-77
2020/12/16 11:49:32;;;;;;;6.30;4.70;;;9.30;99.90;;;;;;4974828;28;20207;-77
2020/12/16 11:51:58;;;;;;;2.60;2.37;;;9.40;99.90;;;;;;4975125;28;20814;-77
2020/12/16 11:54:24;;;;;;;2.50;1.90;;;9.50;99.90;;;;;;4975040;28;20834;-77
2020/12/16 11:56:50;;;;;;;1.13;1.03;;;9.60;99.90;;;;;;4972820;28;20440;-78
2020/12/16 11:59:16;;;;;;;1.27;0.97;;;9.80;99.90;;;;;;4974504;28;20577;-77
2020/12/16 12:01:42;;;;;;;1.90;1.10;;;10.00;99.90;;;;;;4975070;28;20430;-78
2020/12/16 12:04:08;;;;;;;1.23;0.93;;;10.00;99.90;;;;;;4974294;28;20697;-77
2020/12/16 12:06:34;;;;;;;1.00;0.70;;;10.00;99.90;;;;;;4986854;23;20544;-77
2020/12/16 12:09:00;;;;;;;1.00;0.90;;;9.90;99.90;;;;;;4974676;28;20929;-77
2020/12/16 12:11:26;;;;;;;0.83;0.83;;;10.00;99.90;;;;;;4974877;28;20193;-77
2020/12/16 12:13:52;;;;;;;1.13;1.00;;;10.10;99.90;;;;;;4974773;28;20239;-76
2020/12/16 12:16:17;;;;;;;1.70;1.40;;;10.10;99.90;;;;;;4966236;28;20168;-77
2020/12/16 12:18:44;;;;;;;2.07;1.87;;;10.10;99.90;;;;;;4974620;28;20464;-77
2020/12/16 12:21:15;;;;;;;1.77;1.60;;;10.10;99.90;;;;;;4974213;28;20683;-78
2020/12/16 12:23:41;;;;;;;1.60;1.50;;;10.20;99.90;;;;;;4973846;28;20526;-77
2020/12/16 12:26:06;;;;;;;2.00;1.27;;;10.20;99.90;;;;;;4962338;28;21031;-78
2020/12/16 12:28:32;;;;;;;1.70;1.23;;;10.20;99.90;;;;;;4963627;28;20711;-78
2020/12/16 12:30:58;;;;;;;1.17;1.07;;;10.20;99.90;;;;;;4966700;28;20206;-78
2020/12/16 12:33:24;;;;;;;1.37;1.27;;;10.30;99.90;;;;;;4955148;28;20509;-78
2020/12/16 12:35:50;;;;;;;1.17;1.07;;;10.40;99.90;;;;;;4966489;28;20468;-79
2020/12/16 12:38:16;;;;;;;1.67;1.47;;;10.30;99.90;;;;;;4954890;28;20190;-79
2020/12/16 12:40:42;;;;;;;1.17;0.90;;;10.30;99.90;;;;;;4958504;28;20542;-78
2020/12/16 12:43:08;;;;;;;2.40;0.90;;;10.30;99.90;;;;;;4989071;28;20639;-79
2020/12/16 12:45:34;;;;;;;1.20;1.10;;;10.20;99.90;;;;;;4972369;28;20972;-77
2020/12/16 12:48:00;;;;;;;2.17;1.10;;;10.40;99.90;;;;;;4961078;28;20434;-77
2020/12/16 12:50:26;;;;;;;1.87;1.57;;;10.30;99.90;;;;;;4973459;28;20621;-77
2020/12/16 12:52:52;;;;;;;4.30;1.53;;;10.20;99.90;;;;;;4973391;28;20443;-77
2020/12/16 12:55:18;;;;;;;1.10;0.87;;;10.20;99.90;;;;;;4972669;28;20214;-77